sensor_id;sensor_type;location;lat;lon;timestamp;temperature;humidity
14873;DHT22;7528;48.576;19.122;2023-05-07T00:03:32;16.10;86.80
14873;DHT22;7528;48.576;19.122;2023-05-07T00:08:35;16.10;86.70
14873;DHT22;7528;48.576;19.122;2023-05-07T00:13:39;16.00;87.60
14873;DHT22;7528;48.576;19.122;2023-05-07T00:18:41;16.00;88.10
14873;DHT22;7528;48.576;19.122;2023-05-07T00:23:44;16.00;88.30
14873;DHT22;7528;48.576;19.122;2023-05-07T00:28:48;15.90;89.70
14873;DHT22;7528;48.576;19.122;2023-05-07T00:33:51;15.90;89.50
14873;DHT22;7528;48.576;19.122;2023-05-07T00:38:54;15.80;89.90
14873;DHT22;7528;48.576;19.122;2023-05-07T00:43:58;15.90;89.50
14873;DHT22;7528;48.576;19.122;2023-05-07T00:49:01;15.80;89.90
14873;DHT22;7528;48.576;19.122;2023-05-07T00:54:04;15.80;90.00
14873;DHT22;7528;48.576;19.122;2023-05-07T00:59:09;15.80;90.30
14873;DHT22;7528;48.576;19.122;2023-05-07T01:04:12;15.80;90.40
14873;DHT22;7528;48.576;19.122;2023-05-07T01:09:14;15.70;90.80
14873;DHT22;7528;48.576;19.122;2023-05-07T01:14:20;15.60;90.40
14873;DHT22;7528;48.576;19.122;2023-05-07T01:19:23;15.60;90.40
14873;DHT22;7528;48.576;19.122;2023-05-07T01:24:27;15.50;90.50
14873;DHT22;7528;48.576;19.122;2023-05-07T01:29:30;15.50;90.90
14873;DHT22;7528;48.576;19.122;2023-05-07T01:34:35;15.50;90.50
14873;DHT22;7528;48.576;19.122;2023-05-07T01:39:40;15.40;90.10
14873;DHT22;7528;48.576;19.122;2023-05-07T01:44:43;15.40;90.70
14873;DHT22;7528;48.576;19.122;2023-05-07T01:49:46;15.40;90.70
14873;DHT22;7528;48.576;19.122;2023-05-07T01:54:49;15.40;90.50
14873;DHT22;7528;48.576;19.122;2023-05-07T01:59:52;15.30;91.00
14873;DHT22;7528;48.576;19.122;2023-05-07T02:04:55;15.30;91.00
14873;DHT22;7528;48.576;19.122;2023-05-07T02:09:59;15.30;91.50
14873;DHT22;7528;48.576;19.122;2023-05-07T02:15:02;15.30;91.00
14873;DHT22;7528;48.576;19.122;2023-05-07T02:20:06;15.30;91.20
14873;DHT22;7528;48.576;19.122;2023-05-07T02:25:17;15.30;91.20
14873;DHT22;7528;48.576;19.122;2023-05-07T02:30:19;15.20;91.30
14873;DHT22;7528;48.576;19.122;2023-05-07T02:35:26;15.10;91.20
14873;DHT22;7528;48.576;19.122;2023-05-07T02:40:31;15.10;91.60
14873;DHT22;7528;48.576;19.122;2023-05-07T02:45:34;15.10;91.80
14873;DHT22;7528;48.576;19.122;2023-05-07T02:50:39;15.10;91.80
14873;DHT22;7528;48.576;19.122;2023-05-07T02:55:43;15.10;91.30
14873;DHT22;7528;48.576;19.122;2023-05-07T03:00:46;15.10;91.20
14873;DHT22;7528;48.576;19.122;2023-05-07T03:05:57;15.10;91.30
14873;DHT22;7528;48.576;19.122;2023-05-07T03:11:02;15.10;91.40
14873;DHT22;7528;48.576;19.122;2023-05-07T03:16:05;15.10;91.70
14873;DHT22;7528;48.576;19.122;2023-05-07T03:21:08;15.00;91.70
14873;DHT22;7528;48.576;19.122;2023-05-07T03:26:12;15.10;91.80
14873;DHT22;7528;48.576;19.122;2023-05-07T03:31:15;15.00;91.70
14873;DHT22;7528;48.576;19.122;2023-05-07T03:36:18;15.00;92.10
14873;DHT22;7528;48.576;19.122;2023-05-07T03:41:22;15.00;92.00
14873;DHT22;7528;48.576;19.122;2023-05-07T03:46:25;15.00;91.90
14873;DHT22;7528;48.576;19.122;2023-05-07T03:51:30;15.00;92.10
14873;DHT22;7528;48.576;19.122;2023-05-07T03:56:34;14.90;91.90
14873;DHT22;7528;48.576;19.122;2023-05-07T04:01:37;15.00;91.90
14873;DHT22;7528;48.576;19.122;2023-05-07T04:06:39;15.00;91.60
14873;DHT22;7528;48.576;19.122;2023-05-07T04:11:43;15.00;91.40
14873;DHT22;7528;48.576;19.122;2023-05-07T04:16:46;15.00;91.40
14873;DHT22;7528;48.576;19.122;2023-05-07T04:21:49;15.10;91.80
14873;DHT22;7528;48.576;19.122;2023-05-07T04:26:53;15.10;91.70
14873;DHT22;7528;48.576;19.122;2023-05-07T04:31:56;15.10;91.40
14873;DHT22;7528;48.576;19.122;2023-05-07T04:37:01;15.10;91.50
14873;DHT22;7528;48.576;19.122;2023-05-07T04:42:05;15.10;91.20
14873;DHT22;7528;48.576;19.122;2023-05-07T04:47:08;15.00;91.50
14873;DHT22;7528;48.576;19.122;2023-05-07T04:52:12;15.00;92.10
14873;DHT22;7528;48.576;19.122;2023-05-07T04:57:17;15.00;92.00
14873;DHT22;7528;48.576;19.122;2023-05-07T05:02:19;15.10;92.10
14873;DHT22;7528;48.576;19.122;2023-05-07T05:07:22;15.10;91.90
14873;DHT22;7528;48.576;19.122;2023-05-07T05:12:29;15.20;92.00
14873;DHT22;7528;48.576;19.122;2023-05-07T05:17:33;15.20;91.50
14873;DHT22;7528;48.576;19.122;2023-05-07T05:22:39;15.30;91.60
14873;DHT22;7528;48.576;19.122;2023-05-07T05:27:44;15.30;91.00
14873;DHT22;7528;48.576;19.122;2023-05-07T05:32:47;15.20;91.30
14873;DHT22;7528;48.576;19.122;2023-05-07T05:37:50;15.20;91.70
14873;DHT22;7528;48.576;19.122;2023-05-07T05:42:55;15.30;91.70
14873;DHT22;7528;48.576;19.122;2023-05-07T05:47:58;15.50;91.50
14873;DHT22;7528;48.576;19.122;2023-05-07T05:53:01;15.60;90.90
14873;DHT22;7528;48.576;19.122;2023-05-07T05:58:05;15.70;90.30
14873;DHT22;7528;48.576;19.122;2023-05-07T06:03:12;15.80;90.80
14873;DHT22;7528;48.576;19.122;2023-05-07T06:08:15;15.90;91.00
14873;DHT22;7528;48.576;19.122;2023-05-07T06:13:19;16.00;90.40
14873;DHT22;7528;48.576;19.122;2023-05-07T06:18:22;16.00;90.70
14873;DHT22;7528;48.576;19.122;2023-05-07T06:23:26;16.20;90.30
14873;DHT22;7528;48.576;19.122;2023-05-07T06:28:30;16.40;90.30
14873;DHT22;7528;48.576;19.122;2023-05-07T06:33:38;16.40;89.90
14873;DHT22;7528;48.576;19.122;2023-05-07T06:38:41;16.60;89.10
14873;DHT22;7528;48.576;19.122;2023-05-07T06:43:46;16.70;87.60
14873;DHT22;7528;48.576;19.122;2023-05-07T06:49:06;16.80;88.30
14873;DHT22;7528;48.576;19.122;2023-05-07T06:54:09;16.90;84.50
14873;DHT22;7528;48.576;19.122;2023-05-07T06:59:15;16.90;84.30
14873;DHT22;7528;48.576;19.122;2023-05-07T07:04:18;17.00;85.60
14873;DHT22;7528;48.576;19.122;2023-05-07T07:09:29;17.20;84.10
14873;DHT22;7528;48.576;19.122;2023-05-07T08:32:15;19.90;65.80
14873;DHT22;7528;48.576;19.122;2023-05-07T08:37:18;20.20;65.10
14873;DHT22;7528;48.576;19.122;2023-05-07T08:42:22;20.40;62.90
14873;DHT22;7528;48.576;19.122;2023-05-07T08:47:30;20.60;63.10
14873;DHT22;7528;48.576;19.122;2023-05-07T08:52:36;20.80;61.10
14873;DHT22;7528;48.576;19.122;2023-05-07T08:57:39;20.90;60.20
14873;DHT22;7528;48.576;19.122;2023-05-07T09:02:45;21.00;61.50
14873;DHT22;7528;48.576;19.122;2023-05-07T09:07:47;21.10;57.40
14873;DHT22;7528;48.576;19.122;2023-05-07T09:12:51;21.20;53.10
14873;DHT22;7528;48.576;19.122;2023-05-07T09:17:59;21.30;56.00
14873;DHT22;7528;48.576;19.122;2023-05-07T09:23:04;21.30;53.40
14873;DHT22;7528;48.576;19.122;2023-05-07T09:28:08;21.40;51.90
14873;DHT22;7528;48.576;19.122;2023-05-07T09:33:13;21.40;52.80
14873;DHT22;7528;48.576;19.122;2023-05-07T09:38:21;21.50;49.70
14873;DHT22;7528;48.576;19.122;2023-05-07T09:43:31;21.50;53.50
14873;DHT22;7528;48.576;19.122;2023-05-07T09:48:39;21.50;51.90
14873;DHT22;7528;48.576;19.122;2023-05-07T09:53:43;21.50;47.40
14873;DHT22;7528;48.576;19.122;2023-05-07T09:58:49;21.60;50.40
14873;DHT22;7528;48.576;19.122;2023-05-07T10:03:57;21.80;50.90
14873;DHT22;7528;48.576;19.122;2023-05-07T10:09:00;22.00;47.90
14873;DHT22;7528;48.576;19.122;2023-05-07T10:14:04;22.20;47.50
14873;DHT22;7528;48.576;19.122;2023-05-07T10:19:09;22.40;46.00
14873;DHT22;7528;48.576;19.122;2023-05-07T10:24:20;22.40;46.00
14873;DHT22;7528;48.576;19.122;2023-05-07T10:29:32;22.40;45.80
14873;DHT22;7528;48.576;19.122;2023-05-07T10:34:43;22.60;46.30
14873;DHT22;7528;48.576;19.122;2023-05-07T10:39:48;22.80;47.40
14873;DHT22;7528;48.576;19.122;2023-05-07T10:44:50;23.00;46.50
14873;DHT22;7528;48.576;19.122;2023-05-07T10:50:22;23.10;44.40
14873;DHT22;7528;48.576;19.122;2023-05-07T10:55:29;23.20;42.60
14873;DHT22;7528;48.576;19.122;2023-05-07T11:00:44;23.20;42.70
14873;DHT22;7528;48.576;19.122;2023-05-07T11:06:11;23.20;45.40
14873;DHT22;7528;48.576;19.122;2023-05-07T11:11:47;23.30;42.80
14873;DHT22;7528;48.576;19.122;2023-05-07T11:17:20;23.30;41.10
14873;DHT22;7528;48.576;19.122;2023-05-07T11:22:38;23.40;43.40
14873;DHT22;7528;48.576;19.122;2023-05-07T11:28:05;23.50;42.10
14873;DHT22;7528;48.576;19.122;2023-05-07T11:33:09;23.40;41.40
14873;DHT22;7528;48.576;19.122;2023-05-07T11:38:14;23.50;44.20
14873;DHT22;7528;48.576;19.122;2023-05-07T11:43:17;23.80;42.50
14873;DHT22;7528;48.576;19.122;2023-05-07T11:48:21;24.00;40.90
14873;DHT22;7528;48.576;19.122;2023-05-07T11:53:26;24.00;41.50
14873;DHT22;7528;48.576;19.122;2023-05-07T11:58:29;23.80;42.60
14873;DHT22;7528;48.576;19.122;2023-05-07T12:03:31;23.90;41.70
14873;DHT22;7528;48.576;19.122;2023-05-07T12:08:36;24.00;42.00
14873;DHT22;7528;48.576;19.122;2023-05-07T12:13:39;24.10;39.80
14873;DHT22;7528;48.576;19.122;2023-05-07T12:18:43;24.10;39.70
14873;DHT22;7528;48.576;19.122;2023-05-07T12:23:48;24.30;38.30
14873;DHT22;7528;48.576;19.122;2023-05-07T12:28:50;24.20;39.40
14873;DHT22;7528;48.576;19.122;2023-05-07T12:33:53;24.40;39.60
14873;DHT22;7528;48.576;19.122;2023-05-07T12:38:57;24.30;38.20
14873;DHT22;7528;48.576;19.122;2023-05-07T12:43:59;24.30;37.70
14873;DHT22;7528;48.576;19.122;2023-05-07T12:49:02;24.30;36.70
14873;DHT22;7528;48.576;19.122;2023-05-07T12:54:06;24.10;38.60
14873;DHT22;7528;48.576;19.122;2023-05-07T12:59:08;24.30;39.80
14873;DHT22;7528;48.576;19.122;2023-05-07T13:04:11;24.20;38.40
14873;DHT22;7528;48.576;19.122;2023-05-07T13:09:15;24.30;38.50
14873;DHT22;7528;48.576;19.122;2023-05-07T13:14:17;24.10;36.50
14873;DHT22;7528;48.576;19.122;2023-05-07T13:19:21;23.90;37.60
14873;DHT22;7528;48.576;19.122;2023-05-07T13:24:25;24.10;36.90
14873;DHT22;7528;48.576;19.122;2023-05-07T13:29:28;24.10;39.20
14873;DHT22;7528;48.576;19.122;2023-05-07T13:34:31;24.00;38.20
14873;DHT22;7528;48.576;19.122;2023-05-07T13:39:35;24.10;37.40
14873;DHT22;7528;48.576;19.122;2023-05-07T13:44:37;24.10;38.10
14873;DHT22;7528;48.576;19.122;2023-05-07T13:49:39;24.20;38.30
14873;DHT22;7528;48.576;19.122;2023-05-07T13:54:43;24.30;38.20
14873;DHT22;7528;48.576;19.122;2023-05-07T13:59:46;24.30;38.30
14873;DHT22;7528;48.576;19.122;2023-05-07T14:04:48;24.30;38.80
14873;DHT22;7528;48.576;19.122;2023-05-07T14:09:52;24.30;38.30
14873;DHT22;7528;48.576;19.122;2023-05-07T14:14:54;24.30;37.10
14873;DHT22;7528;48.576;19.122;2023-05-07T14:19:57;24.30;36.90
14873;DHT22;7528;48.576;19.122;2023-05-07T14:25:01;24.30;37.90
14873;DHT22;7528;48.576;19.122;2023-05-07T14:30:05;24.10;37.90
14873;DHT22;7528;48.576;19.122;2023-05-07T14:35:08;23.90;38.40
14873;DHT22;7528;48.576;19.122;2023-05-07T14:40:13;23.90;40.60
14873;DHT22;7528;48.576;19.122;2023-05-07T14:45:17;23.80;39.20
14873;DHT22;7528;48.576;19.122;2023-05-07T14:50:19;23.80;39.20
14873;DHT22;7528;48.576;19.122;2023-05-07T14:55:23;23.80;39.80
14873;DHT22;7528;48.576;19.122;2023-05-07T15:00:25;23.80;40.00
14873;DHT22;7528;48.576;19.122;2023-05-07T15:05:28;23.70;40.80
14873;DHT22;7528;48.576;19.122;2023-05-07T15:10:35;23.70;40.10
14873;DHT22;7528;48.576;19.122;2023-05-07T15:15:42;23.50;40.90
14873;DHT22;7528;48.576;19.122;2023-05-07T15:20:45;23.40;40.60
14873;DHT22;7528;48.576;19.122;2023-05-07T15:25:49;23.10;41.40
14873;DHT22;7528;48.576;19.122;2023-05-07T15:30:51;23.10;41.00
14873;DHT22;7528;48.576;19.122;2023-05-07T15:35:54;22.90;41.00
14873;DHT22;7528;48.576;19.122;2023-05-07T15:41:01;22.80;41.80
14873;DHT22;7528;48.576;19.122;2023-05-07T15:46:03;22.60;41.60
14873;DHT22;7528;48.576;19.122;2023-05-07T15:51:06;22.60;42.10
14873;DHT22;7528;48.576;19.122;2023-05-07T15:56:11;22.50;41.10
14873;DHT22;7528;48.576;19.122;2023-05-07T16:01:13;22.50;41.00
14873;DHT22;7528;48.576;19.122;2023-05-07T16:06:16;22.50;40.60
14873;DHT22;7528;48.576;19.122;2023-05-07T16:11:19;22.40;40.90
14873;DHT22;7528;48.576;19.122;2023-05-07T16:16:22;22.10;41.60
14873;DHT22;7528;48.576;19.122;2023-05-07T16:21:26;22.10;42.50
14873;DHT22;7528;48.576;19.122;2023-05-07T16:26:30;22.10;43.20
14873;DHT22;7528;48.576;19.122;2023-05-07T16:31:32;21.80;43.70
14873;DHT22;7528;48.576;19.122;2023-05-07T16:36:35;21.70;44.10
14873;DHT22;7528;48.576;19.122;2023-05-07T16:41:39;21.50;44.70
14873;DHT22;7528;48.576;19.122;2023-05-07T16:46:42;21.30;45.00
14873;DHT22;7528;48.576;19.122;2023-05-07T16:51:44;21.20;45.70
14873;DHT22;7528;48.576;19.122;2023-05-07T16:56:48;21.00;46.00
14873;DHT22;7528;48.576;19.122;2023-05-07T17:01:51;21.00;46.10
14873;DHT22;7528;48.576;19.122;2023-05-07T17:06:53;20.80;46.40
14873;DHT22;7528;48.576;19.122;2023-05-07T17:11:58;20.80;49.00
14873;DHT22;7528;48.576;19.122;2023-05-07T17:17:00;20.70;47.40
14873;DHT22;7528;48.576;19.122;2023-05-07T17:22:03;20.60;48.10
14873;DHT22;7528;48.576;19.122;2023-05-07T17:27:07;20.50;47.80
14873;DHT22;7528;48.576;19.122;2023-05-07T17:32:09;20.40;47.40
14873;DHT22;7528;48.576;19.122;2023-05-07T17:37:12;20.30;47.60
14873;DHT22;7528;48.576;19.122;2023-05-07T17:42:16;20.00;47.70
14873;DHT22;7528;48.576;19.122;2023-05-07T17:47:18;19.80;48.20
14873;DHT22;7528;48.576;19.122;2023-05-07T17:52:21;19.60;48.60
14873;DHT22;7528;48.576;19.122;2023-05-07T17:57:25;19.40;48.00
14873;DHT22;7528;48.576;19.122;2023-05-07T18:02:28;19.40;48.80
14873;DHT22;7528;48.576;19.122;2023-05-07T18:07:31;19.10;48.90
14873;DHT22;7528;48.576;19.122;2023-05-07T18:12:35;19.00;48.90
14873;DHT22;7528;48.576;19.122;2023-05-07T18:17:38;18.90;51.30
14873;DHT22;7528;48.576;19.122;2023-05-07T18:22:41;18.90;50.20
14873;DHT22;7528;48.576;19.122;2023-05-07T18:27:44;18.80;52.10
14873;DHT22;7528;48.576;19.122;2023-05-07T18:32:47;18.80;51.90
14873;DHT22;7528;48.576;19.122;2023-05-07T18:37:50;18.70;52.30
14873;DHT22;7528;48.576;19.122;2023-05-07T18:42:53;18.60;52.20
14873;DHT22;7528;48.576;19.122;2023-05-07T18:47:56;18.40;52.80
14873;DHT22;7528;48.576;19.122;2023-05-07T18:52:58;18.30;52.30
14873;DHT22;7528;48.576;19.122;2023-05-07T18:58:02;18.20;53.30
14873;DHT22;7528;48.576;19.122;2023-05-07T19:03:04;18.00;53.70
14873;DHT22;7528;48.576;19.122;2023-05-07T19:08:07;17.90;53.50
14873;DHT22;7528;48.576;19.122;2023-05-07T19:13:10;17.80;53.80
14873;DHT22;7528;48.576;19.122;2023-05-07T19:18:13;17.70;54.20
14873;DHT22;7528;48.576;19.122;2023-05-07T19:23:15;17.50;54.70
14873;DHT22;7528;48.576;19.122;2023-05-07T19:28:19;17.50;55.30
14873;DHT22;7528;48.576;19.122;2023-05-07T19:33:22;17.40;55.20
14873;DHT22;7528;48.576;19.122;2023-05-07T19:38:24;17.30;55.40
14873;DHT22;7528;48.576;19.122;2023-05-07T19:43:29;17.20;55.60
14873;DHT22;7528;48.576;19.122;2023-05-07T19:48:36;17.10;55.40
14873;DHT22;7528;48.576;19.122;2023-05-07T19:53:38;17.00;56.00
14873;DHT22;7528;48.576;19.122;2023-05-07T19:58:42;16.90;56.40
14873;DHT22;7528;48.576;19.122;2023-05-07T20:03:45;16.80;56.10
14873;DHT22;7528;48.576;19.122;2023-05-07T20:08:49;16.70;56.50
14873;DHT22;7528;48.576;19.122;2023-05-07T20:13:53;16.60;56.90
14873;DHT22;7528;48.576;19.122;2023-05-07T20:18:56;16.50;57.20
14873;DHT22;7528;48.576;19.122;2023-05-07T20:23:58;16.50;57.60
14873;DHT22;7528;48.576;19.122;2023-05-07T20:29:02;16.40;57.70
14873;DHT22;7528;48.576;19.122;2023-05-07T20:34:05;16.30;58.40
14873;DHT22;7528;48.576;19.122;2023-05-07T20:39:08;16.20;58.60
14873;DHT22;7528;48.576;19.122;2023-05-07T20:44:15;16.10;58.80
14873;DHT22;7528;48.576;19.122;2023-05-07T20:49:18;16.00;58.80
14873;DHT22;7528;48.576;19.122;2023-05-07T20:54:23;15.90;59.20
14873;DHT22;7528;48.576;19.122;2023-05-07T20:59:29;15.90;59.20
14873;DHT22;7528;48.576;19.122;2023-05-07T21:04:34;15.80;59.40
14873;DHT22;7528;48.576;19.122;2023-05-07T21:09:37;15.70;59.50
14873;DHT22;7528;48.576;19.122;2023-05-07T21:14:41;15.60;59.90
14873;DHT22;7528;48.576;19.122;2023-05-07T21:19:43;15.50;59.90
14873;DHT22;7528;48.576;19.122;2023-05-07T21:24:47;15.40;60.40
14873;DHT22;7528;48.576;19.122;2023-05-07T21:29:53;15.40;60.20
14873;DHT22;7528;48.576;19.122;2023-05-07T21:35:05;15.40;60.40
14873;DHT22;7528;48.576;19.122;2023-05-07T21:40:08;15.40;60.70
14873;DHT22;7528;48.576;19.122;2023-05-07T21:45:13;15.30;61.00
14873;DHT22;7528;48.576;19.122;2023-05-07T21:50:16;15.20;61.40
14873;DHT22;7528;48.576;19.122;2023-05-07T21:55:18;15.10;61.70
14873;DHT22;7528;48.576;19.122;2023-05-07T22:00:22;15.10;62.30
14873;DHT22;7528;48.576;19.122;2023-05-07T22:05:25;15.10;61.70
14873;DHT22;7528;48.576;19.122;2023-05-07T22:10:27;15.10;62.00
14873;DHT22;7528;48.576;19.122;2023-05-07T22:15:31;15.00;61.30
14873;DHT22;7528;48.576;19.122;2023-05-07T22:20:34;15.00;61.80
14873;DHT22;7528;48.576;19.122;2023-05-07T22:25:36;15.00;62.10
14873;DHT22;7528;48.576;19.122;2023-05-07T22:30:40;14.90;62.60
14873;DHT22;7528;48.576;19.122;2023-05-07T22:35:43;14.90;62.80
14873;DHT22;7528;48.576;19.122;2023-05-07T22:40:45;14.90;62.00
14873;DHT22;7528;48.576;19.122;2023-05-07T22:45:56;14.90;61.70
14873;DHT22;7528;48.576;19.122;2023-05-07T22:50:58;14.80;62.00
14873;DHT22;7528;48.576;19.122;2023-05-07T22:56:03;14.80;62.50
14873;DHT22;7528;48.576;19.122;2023-05-07T23:01:12;14.70;62.20
14873;DHT22;7528;48.576;19.122;2023-05-07T23:06:15;14.60;62.60
14873;DHT22;7528;48.576;19.122;2023-05-07T23:11:18;14.60;62.10
14873;DHT22;7528;48.576;19.122;2023-05-07T23:16:22;14.50;63.10
14873;DHT22;7528;48.576;19.122;2023-05-07T23:21:25;14.50;63.10
14873;DHT22;7528;48.576;19.122;2023-05-07T23:26:28;14.50;63.80
14873;DHT22;7528;48.576;19.122;2023-05-07T23:31:32;14.40;64.00
14873;DHT22;7528;48.576;19.122;2023-05-07T23:36:35;14.30;64.20
14873;DHT22;7528;48.576;19.122;2023-05-07T23:41:37;14.30;63.90
14873;DHT22;7528;48.576;19.122;2023-05-07T23:46:41;14.20;64.40
14873;DHT22;7528;48.576;19.122;2023-05-07T23:51:44;14.10;64.70
14873;DHT22;7528;48.576;19.122;2023-05-07T23:56:47;14.10;64.40
